Time;durP1;ratioP1;P1;durP2;ratioP2;P2;SDS_P1;SDS_P2;PMS_P1;PMS_P2;Temp;Humidity;BMP_temperature;BMP_pressure;BME280_temperature;BME280_humidity;BME280_pressure;Samples;Min_cycle;Max_cycle;Signal;HPM_P1;HPM_P2
2021/07/06 00:00:35;;;;;;;18.90;3.40;;;19.80;99.90;;;;;;8344022;28;21343;-77
2021/07/06 00:04:35;;;;;;;3.50;2.83;;;19.80;99.90;;;;;;8349037;28;20539;-77
2021/07/06 00:08:36;;;;;;;7.17;4.20;;;19.70;99.90;;;;;;8372689;28;20832;-77
2021/07/06 00:12:37;;;;;;;9.60;3.77;;;19.70;99.90;;;;;;8349379;28;20187;-77
2021/07/06 00:16:38;;;;;;;3.30;3.10;;;19.70;99.90;;;;;;8377194;28;20896;-77
2021/07/06 00:20:38;;;;;;;4.43;4.10;;;19.70;99.90;;;;;;8369646;28;20509;-78
2021/07/06 00:24:39;;;;;;;4.67;4.10;;;19.70;99.90;;;;;;8352976;28;20404;-77
2021/07/06 00:28:40;;;;;;;5.97;3.90;;;19.70;99.90;;;;;;8379252;28;20666;-77
2021/07/06 00:32:40;;;;;;;5.10;4.60;;;19.70;99.90;;;;;;8346517;28;21020;-77
2021/07/06 00:36:41;;;;;;;12.50;3.77;;;19.60;99.90;;;;;;8375036;28;20192;-77
2021/07/06 00:40:42;;;;;;;4.77;3.50;;;19.60;99.90;;;;;;8352121;28;20190;-77
2021/07/06 00:44:44;;;;;;;8.60;3.60;;;19.60;99.90;;;;;;8374611;28;20490;-77
2021/07/06 00:48:45;;;;;;;6.97;3.87;;;19.60;99.90;;;;;;8363764;28;20207;-77
2021/07/06 00:52:46;;;;;;;6.47;3.50;;;19.50;99.90;;;;;;8380618;28;20449;-78
2021/07/06 00:56:47;;;;;;;3.80;3.27;;;19.60;99.90;;;;;;8376699;28;20585;-77
2021/07/06 01:00:48;;;;;;;3.50;3.20;;;19.50;99.90;;;;;;8361895;28;20676;-78
2021/07/06 01:04:49;;;;;;;8.83;4.00;;;19.50;99.90;;;;;;8352287;28;20456;-76
2021/07/06 01:08:50;;;;;;;5.03;3.70;;;19.50;99.90;;;;;;8367646;28;21006;-77
2021/07/06 01:12:54;;;;;;;7.03;3.47;;;19.40;99.90;;;;;;8370994;28;20978;-77
2021/07/06 01:16:54;;;;;;;5.50;3.30;;;19.40;99.90;;;;;;8357201;28;20193;-77
2021/07/06 01:20:56;;;;;;;4.00;2.43;;;19.40;99.90;;;;;;8360736;28;20945;-77
2021/07/06 01:24:58;;;;;;;4.60;3.57;;;19.30;99.90;;;;;;8361868;28;20812;-77
2021/07/06 01:28:59;;;;;;;5.50;3.37;;;19.40;99.90;;;;;;8348335;28;20495;-77
2021/07/06 01:33:00;;;;;;;3.87;2.80;;;19.30;99.90;;;;;;8356012;28;20444;-77
2021/07/06 01:37:01;;;;;;;5.43;2.50;;;19.30;99.90;;;;;;8376971;28;20190;-77
2021/07/06 01:41:03;;;;;;;6.73;3.50;;;19.30;99.90;;;;;;8356388;28;20443;-77
2021/07/06 01:45:09;;;;;;;11.00;4.43;;;19.30;99.90;;;;;;8349903;28;20840;-77
2021/07/06 01:49:14;;;;;;;7.07;3.07;;;19.30;99.90;;;;;;8352239;28;20796;-77
2021/07/06 01:53:17;;;;;;;14.00;2.87;;;19.40;99.90;;;;;;8383343;28;20502;-77
2021/07/06 01:57:18;;;;;;;7.80;2.47;;;19.40;99.90;;;;;;8358255;28;20452;-77
2021/07/06 02:01:18;;;;;;;2.80;2.60;;;19.50;99.90;;;;;;8373435;28;20543;-77
2021/07/06 02:05:30;;;;;;;11.60;2.90;;;19.50;99.90;;;;;;8353014;28;20709;-78
2021/07/06 02:09:30;;;;;;;2.37;2.17;;;19.50;99.90;;;;;;8367837;28;20886;-77
2021/07/06 02:13:31;;;;;;;2.87;2.60;;;19.50;99.90;;;;;;8375905;28;21318;-77
2021/07/06 02:17:31;;;;;;;3.97;3.27;;;19.60;99.90;;;;;;8386957;28;20194;-77
2021/07/06 02:21:32;;;;;;;5.20;2.43;;;19.70;99.90;;;;;;8370324;28;20198;-77
2021/07/06 02:25:33;;;;;;;5.37;2.50;;;19.70;99.90;;;;;;8361710;28;20231;-77
2021/07/06 02:29:34;;;;;;;4.23;2.80;;;19.70;99.90;;;;;;8390086;28;20301;-77
2021/07/06 02:33:35;;;;;;;6.90;2.60;;;19.80;99.90;;;;;;8393602;28;20441;-77
2021/07/06 02:37:39;;;;;;;6.03;2.53;;;19.80;99.90;;;;;;8355619;28;20207;-77
2021/07/06 02:41:40;;;;;;;5.80;2.53;;;19.80;99.90;;;;;;8359273;28;20453;-76
2021/07/06 02:45:40;;;;;;;8.00;2.40;;;19.90;99.90;;;;;;8377599;28;20471;-76
2021/07/06 02:49:41;;;;;;;5.77;3.20;;;19.90;99.90;;;;;;8376848;28;20287;-77
2021/07/06 02:53:42;;;;;;;8.83;2.87;;;19.80;99.90;;;;;;8377184;28;20193;-76
2021/07/06 02:57:43;;;;;;;3.13;2.80;;;19.80;99.90;;;;;;8350841;28;20190;-76
2021/07/06 03:01:44;;;;;;;4.40;2.70;;;19.80;99.90;;;;;;8353323;28;20182;-77
2021/07/06 03:05:44;;;;;;;2.90;2.60;;;19.80;99.90;;;;;;8357332;28;20456;-76
2021/07/06 03:09:45;;;;;;;4.83;2.67;;;19.70;99.90;;;;;;8355281;28;20209;-76
2021/07/06 03:13:47;;;;;;;7.70;2.90;;;19.70;99.90;;;;;;8362405;28;20213;-77
2021/07/06 03:17:48;;;;;;;9.13;3.07;;;19.70;99.90;;;;;;8357760;28;20215;-77
2021/07/06 03:21:49;;;;;;;3.30;2.03;;;19.70;99.90;;;;;;8371657;28;20451;-76
2021/07/06 03:25:50;;;;;;;5.13;2.87;;;19.60;99.90;;;;;;8356199;28;20445;-77
2021/07/06 03:29:50;;;;;;;3.80;2.87;;;19.60;99.90;;;;;;8394377;28;20258;-76
2021/07/06 03:33:51;;;;;;;4.43;2.53;;;19.60;99.90;;;;;;8386424;28;20217;-77
2021/07/06 03:37:54;;;;;;;3.03;2.50;;;19.60;99.90;;;;;;8367305;28;20194;-77
2021/07/06 03:41:55;;;;;;;6.60;3.23;;;19.70;99.90;;;;;;8372954;28;20222;-76
2021/07/06 03:45:55;;;;;;;3.30;2.10;;;19.70;99.90;;;;;;8378467;28;20452;-76
2021/07/06 03:49:56;;;;;;;3.83;2.50;;;19.80;99.90;;;;;;8375209;28;20293;-76
2021/07/06 03:53:57;;;;;;;2.77;2.57;;;19.80;99.90;;;;;;8376847;28;20240;-77
2021/07/06 03:57:58;;;;;;;3.13;2.40;;;19.90;99.90;;;;;;8377214;28;20243;-76
2021/07/06 04:01:58;;;;;;;2.60;2.40;;;19.90;99.90;;;;;;8366005;28;20202;-76
2021/07/06 04:05:59;;;;;;;4.70;3.17;;;19.90;99.90;;;;;;8378872;28;20582;-76
2021/07/06 04:09:59;;;;;;;3.17;2.40;;;20.00;99.90;;;;;;8356993;28;20233;-76
2021/07/06 04:14:00;;;;;;;7.33;2.27;;;20.00;99.90;;;;;;8350883;28;20213;-76
2021/07/06 04:18:01;;;;;;;2.97;2.67;;;20.10;99.90;;;;;;8377832;28;20195;-77
2021/07/06 04:22:01;;;;;;;5.73;2.17;;;20.10;99.90;;;;;;8386068;28;20214;-76
2021/07/06 04:26:03;;;;;;;2.37;1.63;;;20.20;99.90;;;;;;8371179;28;20198;-77
2021/07/06 04:30:06;;;;;;;1.80;1.70;;;20.50;99.90;;;;;;8376886;28;20227;-77
2021/07/06 04:34:07;;;;;;;3.63;1.80;;;20.80;99.90;;;;;;8374996;28;20449;-76
2021/07/06 04:38:08;;;;;;;7.93;1.90;;;21.20;99.10;;;;;;8380832;28;20607;-77
2021/07/06 04:42:12;;;;;;;1.27;1.20;;;21.50;98.50;;;;;;8362329;28;20946;-77
2021/07/06 04:46:12;;;;;;;1.90;1.80;;;21.70;98.60;;;;;;8387265;28;20441;-76
2021/07/06 04:50:15;;;;;;;6.57;1.90;;;21.70;98.50;;;;;;8358903;28;20531;-77
2021/07/06 04:54:20;;;;;;;4.40;2.10;;;21.70;98.30;;;;;;8378828;28;20534;-77
2021/07/06 04:58:21;;;;;;;3.10;2.13;;;21.70;98.20;;;;;;8373498;28;20470;-76
2021/07/06 05:02:21;;;;;;;2.50;1.80;;;21.70;98.60;;;;;;8362898;28;20450;-76
2021/07/06 05:06:22;;;;;;;3.97;1.70;;;21.70;98.70;;;;;;8352032;28;20277;-77
2021/07/06 05:10:23;;;;;;;4.60;2.50;;;21.60;99.10;;;;;;8369373;28;20257;-80
2021/07/06 05:14:24;;;;;;;3.30;1.57;;;21.50;99.40;;;;;;8374448;28;20179;-80
2021/07/06 05:18:24;;;;;;;2.47;2.27;;;21.40;99.80;;;;;;8358929;28;20735;-79
2021/07/06 05:22:25;;;;;;;2.70;2.50;;;21.30;99.90;;;;;;8362206;28;20178;-81
2021/07/06 05:26:26;;;;;;;2.57;2.37;;;21.20;99.90;;;;;;8361524;28;20196;-80
2021/07/06 05:30:26;;;;;;;8.43;2.80;;;21.00;99.90;;;;;;8391083;28;20221;-80
2021/07/06 05:34:27;;;;;;;3.53;2.13;;;20.90;99.90;;;;;;8388475;28;20159;-79
2021/07/06 05:38:28;;;;;;;3.20;2.90;;;20.80;99.90;;;;;;8364615;28;20685;-79
2021/07/06 05:42:29;;;;;;;2.83;2.40;;;20.70;99.90;;;;;;8366018;28;20240;-80
2021/07/06 05:46:29;;;;;;;4.60;3.57;;;20.70;99.90;;;;;;8377593;28;20182;-79
2021/07/06 05:50:30;;;;;;;5.53;3.93;;;20.80;99.90;;;;;;8362317;28;20257;-79
2021/07/06 05:54:31;;;;;;;5.27;3.07;;;20.80;99.90;;;;;;8375265;28;20718;-81
2021/07/06 05:58:31;;;;;;;3.17;2.87;;;20.80;99.90;;;;;;8370089;28;20202;-79
2021/07/06 06:02:32;;;;;;;8.13;3.37;;;20.90;99.90;;;;;;8365071;28;20189;-79
2021/07/06 06:06:33;;;;;;;3.20;2.77;;;20.90;99.90;;;;;;8362031;28;20194;-78
2021/07/06 06:10:34;;;;;;;3.10;2.80;;;20.90;99.90;;;;;;8377087;28;20218;-80
2021/07/06 06:14:35;;;;;;;3.67;3.00;;;21.00;99.90;;;;;;8361496;28;20186;-79
2021/07/06 06:18:35;;;;;;;3.30;2.50;;;21.00;99.90;;;;;;8353388;28;20866;-79
2021/07/06 06:22:36;;;;;;;3.50;3.20;;;21.00;99.90;;;;;;8354456;28;20595;-80
2021/07/06 06:26:37;;;;;;;2.80;2.60;;;21.00;99.90;;;;;;8372773;28;20190;-80
2021/07/06 06:30:39;;;;;;;3.30;2.60;;;20.90;99.90;;;;;;8392911;28;20251;-80
2021/07/06 06:34:39;;;;;;;2.90;2.10;;;20.90;99.90;;;;;;8362457;28;20294;-80
2021/07/06 06:38:40;;;;;;;9.30;3.00;;;20.90;99.90;;;;;;8367593;28;20604;-80
2021/07/06 06:42:41;;;;;;;4.60;3.20;;;20.80;99.90;;;;;;8370146;28;20201;-77
2021/07/06 06:46:42;;;;;;;4.23;3.10;;;20.80;99.90;;;;;;8354988;28;21165;-76
2021/07/06 06:50:46;;;;;;;3.03;2.80;;;20.80;99.90;;;;;;8342017;28;20835;-75
2021/07/06 06:54:46;;;;;;;4.63;3.27;;;20.70;99.90;;;;;;8357790;28;23916;-76
2021/07/06 06:58:47;;;;;;;3.53;3.33;;;20.70;99.90;;;;;;8352884;28;21260;-77
2021/07/06 07:02:50;;;;;;;3.53;2.37;;;20.60;99.90;;;;;;8360963;28;20206;-76
2021/07/06 07:06:51;;;;;;;2.83;2.33;;;20.60;99.90;;;;;;8357170;28;20195;-77
2021/07/06 07:10:52;;;;;;;3.77;3.47;;;20.50;99.90;;;;;;8353633;28;20499;-77
2021/07/06 07:14:52;;;;;;;3.57;2.90;;;20.40;99.90;;;;;;8365959;28;20866;-77
2021/07/06 07:18:54;;;;;;;2.80;2.60;;;20.30;99.90;;;;;;8357565;28;20825;-78
2021/07/06 07:22:54;;;;;;;5.03;2.60;;;20.20;99.90;;;;;;8352114;28;20187;-76
2021/07/06 07:26:56;;;;;;;3.60;2.97;;;20.10;99.90;;;;;;8336545;28;20448;-76
2021/07/06 07:30:57;;;;;;;8.50;3.30;;;20.10;99.90;;;;;;8350383;28;20231;-76
2021/07/06 07:34:57;;;;;;;5.23;1.87;;;20.10;99.90;;;;;;8338780;28;20467;-75
2021/07/06 07:38:58;;;;;;;4.87;2.97;;;20.00;99.90;;;;;;8340601;28;20188;-76
2021/07/06 07:43:05;;;;;;;3.10;2.90;;;20.10;99.90;;;;;;8348323;28;20298;-76
2021/07/06 07:47:07;;;;;;;3.40;2.37;;;20.10;99.90;;;;;;8333325;28;20248;-76
2021/07/06 07:51:07;;;;;;;2.33;2.20;;;20.20;99.90;;;;;;8346352;28;20450;-77
2021/07/06 07:55:08;;;;;;;3.03;1.67;;;20.30;99.90;;;;;;8351688;28;20467;-76
2021/07/06 07:59:09;;;;;;;1.53;1.43;;;20.40;99.90;;;;;;8344391;28;20188;-77
2021/07/06 08:03:10;;;;;;;2.13;1.50;;;20.60;99.90;;;;;;8342796;28;20523;-76
2021/07/06 08:07:11;;;;;;;2.10;1.50;;;20.70;99.90;;;;;;8344874;28;20270;-77
2021/07/06 08:11:11;;;;;;;1.63;1.47;;;20.90;99.90;;;;;;8369635;28;20217;-76
2021/07/06 08:15:13;;;;;;;0.90;0.80;;;21.00;99.90;;;;;;8343256;28;20443;-76
2021/07/06 08:19:13;;;;;;;0.80;0.80;;;21.20;99.90;;;;;;8352265;28;20195;-76
2021/07/06 08:23:14;;;;;;;3.17;1.30;;;21.40;99.90;;;;;;8339803;28;20862;-77
2021/07/06 08:27:16;;;;;;;2.53;1.37;;;21.60;99.90;;;;;;8349930;28;20251;-77
2021/07/06 08:31:16;;;;;;;0.80;0.80;;;21.70;99.90;;;;;;8374349;28;21762;-76
2021/07/06 08:35:17;;;;;;;0.70;0.70;;;21.90;99.90;;;;;;8380142;28;20781;-78
2021/07/06 08:39:18;;;;;;;0.93;0.83;;;22.10;99.90;;;;;;8356912;28;20233;-80
2021/07/06 18:13:49;;;;;;;10.43;3.10;;;20.70;91.10;;;;;;8431424;27;21658;-77
2021/07/06 18:17:50;;;;;;;6.70;2.10;;;21.40;90.40;;;;;;8432611;27;20474;-79
2021/07/06 18:21:50;;;;;;;17.23;2.70;;;22.40;88.40;;;;;;8403416;28;20422;-82
2021/07/06 18:25:52;;;;;;;4.13;2.30;;;22.90;86.30;;;;;;8401842;28;20500;-81
2021/07/06 18:29:53;;;;;;;3.87;2.33;;;23.20;85.80;;;;;;8394835;28;20232;-78
2021/07/06 18:33:53;;;;;;;7.27;2.70;;;23.20;85.20;;;;;;8407410;28;20441;-78
2021/07/06 18:37:57;;;;;;;5.07;2.60;;;23.30;84.30;;;;;;8410162;28;20219;-80
2021/07/06 18:41:57;;;;;;;4.13;2.70;;;23.50;84.50;;;;;;8403916;28;20246;-76
2021/07/06 18:45:58;;;;;;;5.03;2.23;;;23.70;84.20;;;;;;8404510;28;20425;-78
2021/07/06 18:49:58;;;;;;;11.17;2.23;;;23.70;83.20;;;;;;8401272;28;20220;-78
2021/07/06 18:53:59;;;;;;;12.20;2.63;;;23.70;83.50;;;;;;8398355;28;20189;-77
2021/07/06 18:58:00;;;;;;;5.00;2.23;;;23.70;82.90;;;;;;8398701;28;20215;-79
2021/07/06 19:02:06;;;;;;;8.23;2.40;;;23.60;83.60;;;;;;8394235;28;20207;-77
2021/07/06 19:06:07;;;;;;;10.30;2.87;;;23.40;83.70;;;;;;8392830;28;20178;-76
2021/07/06 19:10:08;;;;;;;15.93;3.10;;;23.30;84.20;;;;;;8397154;28;20476;-79
2021/07/06 19:14:09;;;;;;;4.80;2.23;;;23.00;84.20;;;;;;8414407;28;20663;-79
2021/07/06 19:18:11;;;;;;;18.20;3.60;;;22.90;84.50;;;;;;8415501;28;20432;-79
2021/07/06 19:22:12;;;;;;;5.47;2.10;;;22.70;85.20;;;;;;8400895;28;20448;-78
2021/07/06 19:26:36;;;;;;;7.53;2.50;;;22.60;85.50;;;;;;8416393;28;20558;-79
2021/07/06 19:34:55;;;;;;;10.27;3.47;;;22.30;86.40;;;;;;8392592;28;20410;-79
2021/07/06 19:38:57;;;;;;;7.77;3.03;;;22.20;86.50;;;;;;8388990;28;20436;-78
2021/07/06 19:42:58;;;;;;;4.63;2.33;;;22.10;86.90;;;;;;8386629;28;20190;-77
2021/07/06 19:46:59;;;;;;;7.23;2.63;;;22.00;87.50;;;;;;8391425;28;20457;-79
2021/07/06 19:51:01;;;;;;;8.90;3.17;;;21.90;87.80;;;;;;8387544;28;20455;-77
2021/07/06 19:55:04;;;;;;;4.90;3.23;;;21.80;89.00;;;;;;8413723;27;20199;-78
2021/07/06 19:59:05;;;;;;;8.13;3.50;;;21.60;90.00;;;;;;8375417;28;20457;-78
2021/07/06 20:03:06;;;;;;;4.90;2.67;;;21.50;90.10;;;;;;8390718;28;20540;-78
2021/07/06 20:07:06;;;;;;;11.30;2.90;;;21.30;90.30;;;;;;8389744;28;20963;-77
2021/07/06 20:11:07;;;;;;;8.83;3.30;;;21.30;91.00;;;;;;8392757;28;20265;-78
2021/07/06 20:15:10;;;;;;;4.30;2.70;;;21.10;90.90;;;;;;8389084;28;20176;-78
2021/07/06 20:19:12;;;;;;;6.23;3.40;;;21.00;90.90;;;;;;8393142;28;20930;-79
2021/07/06 20:23:13;;;;;;;9.27;3.00;;;20.90;91.10;;;;;;8393414;28;20475;-79
2021/07/06 20:27:14;;;;;;;8.20;3.63;;;20.80;91.60;;;;;;8392462;28;20443;-79
2021/07/06 20:31:15;;;;;;;5.43;3.17;;;20.70;91.60;;;;;;8393480;28;20195;-78
2021/07/06 20:35:15;;;;;;;8.10;2.97;;;20.60;91.90;;;;;;8394298;28;20190;-77
2021/07/06 20:39:16;;;;;;;8.50;3.03;;;20.50;92.30;;;;;;8396253;28;20441;-77
2021/07/06 20:43:17;;;;;;;7.53;3.33;;;20.40;92.30;;;;;;8390907;28;20616;-79
2021/07/06 20:47:18;;;;;;;6.97;3.60;;;20.30;92.50;;;;;;8414731;27;20194;-78
2021/07/06 20:51:21;;;;;;;8.50;3.73;;;20.20;92.80;;;;;;8383411;28;20194;-79
2021/07/06 20:55:22;;;;;;;4.30;3.20;;;20.10;93.10;;;;;;8390101;28;20977;-79
2021/07/06 20:59:23;;;;;;;14.00;3.43;;;20.00;93.30;;;;;;8387699;28;21235;-78
2021/07/06 21:03:24;;;;;;;9.63;2.80;;;19.90;93.70;;;;;;8381488;28;20186;-79
2021/07/06 21:07:25;;;;;;;25.47;4.30;;;19.70;93.80;;;;;;8379855;28;20197;-79
2021/07/06 21:11:26;;;;;;;10.50;2.60;;;19.60;94.00;;;;;;8377264;28;20561;-78
2021/07/06 21:15:27;;;;;;;10.20;2.47;;;19.60;94.10;;;;;;8397940;28;20189;-77
2021/07/06 21:19:27;;;;;;;10.67;3.87;;;19.50;94.20;;;;;;8383635;28;20463;-79
2021/07/06 21:23:28;;;;;;;11.90;3.87;;;19.40;94.30;;;;;;8384521;28;20440;-78
2021/07/06 21:27:29;;;;;;;7.10;3.20;;;19.40;94.30;;;;;;8381165;28;20307;-78
2021/07/06 21:31:29;;;;;;;10.10;4.30;;;19.30;94.50;;;;;;8387541;28;20198;-78
2021/07/06 21:35:30;;;;;;;11.70;3.60;;;19.30;94.50;;;;;;8385511;28;20191;-80
2021/07/06 21:39:31;;;;;;;15.80;3.27;;;19.20;94.50;;;;;;8386698;28;20186;-79
2021/07/06 21:43:32;;;;;;;6.67;2.93;;;19.20;94.40;;;;;;8388407;28;20271;-80
2021/07/06 21:47:32;;;;;;;11.20;2.70;;;19.20;94.40;;;;;;8386835;28;20189;-79
2021/07/06 21:51:33;;;;;;;8.37;2.80;;;19.20;94.30;;;;;;8389572;28;20580;-79
2021/07/06 21:55:34;;;;;;;8.90;3.80;;;19.20;94.40;;;;;;8385094;28;20664;-79
2021/07/06 21:59:34;;;;;;;10.30;3.77;;;19.20;94.50;;;;;;8371777;28;20179;-79
2021/07/06 22:03:35;;;;;;;8.13;3.20;;;19.10;94.60;;;;;;8411116;28;20200;-79
2021/07/06 22:07:36;;;;;;;7.20;2.93;;;19.00;94.70;;;;;;8378535;28;20198;-78
2021/07/06 22:11:38;;;;;;;12.63;2.80;;;19.00;94.80;;;;;;8375342;28;20268;-79
2021/07/06 22:15:39;;;;;;;10.30;3.23;;;18.90;94.80;;;;;;8373612;28;20442;-79
2021/07/06 22:19:39;;;;;;;19.60;3.97;;;18.90;94.90;;;;;;8376617;28;20467;-78
2021/07/06 22:23:40;;;;;;;9.93;3.30;;;18.80;95.10;;;;;;8376616;28;20186;-77
2021/07/06 22:27:42;;;;;;;5.50;3.00;;;18.80;95.10;;;;;;8375312;28;20186;-78
2021/07/06 22:31:42;;;;;;;11.30;3.37;;;18.70;95.30;;;;;;8382684;28;20635;-79
2021/07/06 22:35:43;;;;;;;12.30;3.20;;;18.70;95.30;;;;;;8378982;28;20986;-78
2021/07/06 22:39:44;;;;;;;12.33;3.37;;;18.70;95.30;;;;;;8376894;28;20260;-77
2021/07/06 22:43:44;;;;;;;5.50;3.17;;;18.60;95.60;;;;;;8377796;28;20324;-78
2021/07/06 22:47:45;;;;;;;7.77;3.17;;;18.60;95.30;;;;;;8378016;28;20195;-79
2021/07/06 22:51:46;;;;;;;9.50;3.47;;;18.60;95.30;;;;;;8374777;28;20207;-78
2021/07/06 22:55:48;;;;;;;8.20;3.00;;;18.60;95.20;;;;;;8375893;28;20185;-78
2021/07/06 22:59:48;;;;;;;6.13;3.00;;;18.60;95.20;;;;;;8397029;28;20205;-79
2021/07/06 23:03:49;;;;;;;9.20;3.07;;;18.60;95.10;;;;;;8381252;28;20478;-80
2021/07/06 23:07:50;;;;;;;5.47;2.63;;;18.50;95.10;;;;;;8383123;28;20185;-80
2021/07/06 23:11:50;;;;;;;12.00;3.53;;;18.60;95.20;;;;;;8413036;28;20685;-79
2021/07/06 23:15:51;;;;;;;9.47;3.23;;;18.50;95.20;;;;;;8381736;28;21024;-79
2021/07/06 23:19:52;;;;;;;12.40;4.23;;;18.50;95.20;;;;;;8382376;28;20206;-77
2021/07/06 23:23:52;;;;;;;7.13;3.10;;;18.50;95.20;;;;;;8380914;28;20189;-77
2021/07/06 23:27:53;;;;;;;7.43;3.53;;;18.50;95.00;;;;;;8378168;28;20350;-79
2021/07/06 23:31:54;;;;;;;7.30;3.70;;;18.50;95.10;;;;;;8381729;28;20209;-79
2021/07/06 23:35:54;;;;;;;12.17;3.10;;;18.50;95.00;;;;;;8384963;28;20781;-78
2021/07/06 23:39:55;;;;;;;6.03;3.97;;;18.60;95.20;;;;;;8375590;28;20227;-79
2021/07/06 23:43:55;;;;;;;7.80;2.87;;;18.50;95.20;;;;;;8381526;28;20308;-78
2021/07/06 23:47:56;;;;;;;7.67;3.37;;;18.50;95.30;;;;;;8379576;28;20189;-79
2021/07/06 23:51:57;;;;;;;8.03;3.17;;;18.40;95.30;;;;;;8381729;28;20308;-80
2021/07/06 23:55:58;;;;;;;7.30;2.90;;;18.40;95.30;;;;;;8384760;28;20585;-80
